Time;durP1;ratioP1;P1;durP2;ratioP2;P2;SDS_P1;SDS_P2;PMS_P1;PMS_P2;Temp;Humidity;BMP_temperature;BMP_pressure;BME280_temperature;BME280_humidity;BME280_pressure;Samples;Min_cycle;Max_cycle;Signal;HPM_P1;HPM_P2
2022/12/29 00:02:16;;;;;;;40.97;22.73;;;7.30;58.70;;;;;;5037398;28;20083;-93
2022/12/29 00:04:42;;;;;;;41.42;22.08;;;7.50;57.90;;;;;;5036706;28;20036;-92
2022/12/29 00:07:08;;;;;;;40.00;21.80;;;7.70;57.60;;;;;;5037764;28;20349;-91
2022/12/29 00:09:35;;;;;;;38.53;22.70;;;7.70;57.50;;;;;;5036598;28;20502;-91
2022/12/29 00:12:02;;;;;;;45.92;25.40;;;7.80;56.80;;;;;;5036983;28;20093;-93
2022/12/29 00:17:13;;;;;;;50.05;25.52;;;7.80;56.70;;;;;;5036057;28;20043;-91
2022/12/29 00:36:19;;;;;;;47.70;24.77;;;7.20;58.40;;;;;;5047183;28;20032;-94
2022/12/29 00:44:18;;;;;;;46.72;23.75;;;7.20;58.00;;;;;;5056557;28;20056;-93
2022/12/29 00:46:43;;;;;;;38.97;22.60;;;7.30;58.30;;;;;;5055184;28;20021;-91
2022/12/29 00:49:30;;;;;;;45.20;23.63;;;7.40;58.30;;;;;;5054415;28;20029;-91
2022/12/29 00:51:59;;;;;;;43.33;24.35;;;7.40;58.30;;;;;;5054361;28;20032;-90
2022/12/29 00:54:25;;;;;;;43.55;23.50;;;7.50;58.30;;;;;;5054445;28;20021;-90
2022/12/29 00:56:52;;;;;;;48.17;25.25;;;7.50;58.20;;;;;;5053944;28;20363;-89
2022/12/29 00:59:18;;;;;;;46.83;25.45;;;7.60;57.80;;;;;;5053666;28;20487;-89
2022/12/29 01:01:45;;;;;;;43.42;25.20;;;7.60;57.60;;;;;;5054149;28;20017;-87
2022/12/29 01:04:11;;;;;;;52.13;27.02;;;7.90;57.00;;;;;;5053634;28;20036;-89
2022/12/29 01:06:38;;;;;;;43.92;23.75;;;8.00;56.50;;;;;;5053358;28;20459;-89
2022/12/29 01:11:50;;;;;;;41.72;23.75;;;7.90;56.70;;;;;;5054790;28;20120;-91
2022/12/29 01:14:16;;;;;;;44.15;24.17;;;7.60;56.70;;;;;;5053553;28;20074;-88
2022/12/29 01:16:42;;;;;;;40.75;23.00;;;7.30;57.20;;;;;;5053877;28;20025;-89
2022/12/29 01:19:08;;;;;;;44.10;22.98;;;6.90;57.90;;;;;;5053708;28;20043;-88
2022/12/29 01:21:33;;;;;;;41.90;22.58;;;6.50;58.00;;;;;;5053558;28;20027;-89
2022/12/29 01:23:59;;;;;;;46.05;23.08;;;6.20;60.30;;;;;;5053930;28;20037;-89
2022/12/29 01:26:25;;;;;;;48.00;23.52;;;5.90;62.30;;;;;;5053622;28;20071;-86
2022/12/29 01:28:50;;;;;;;42.88;23.05;;;5.90;62.80;;;;;;5054263;28;20021;-87
2022/12/29 01:31:16;;;;;;;41.63;23.98;;;6.10;63.00;;;;;;5053714;28;20021;-89
2022/12/29 01:33:42;;;;;;;44.65;24.65;;;6.50;62.40;;;;;;4003272;28;10000707;-92
2022/12/29 01:36:11;;;;;;;38.70;22.17;;;7.00;61.00;;;;;;5070135;23;20052;-91
2022/12/29 01:38:38;;;;;;;45.17;24.77;;;7.50;59.40;;;;;;5052509;28;20067;-83
2022/12/29 01:41:05;;;;;;;44.30;24.02;;;7.90;58.00;;;;;;5053152;28;20447;-92
2022/12/29 01:43:46;;;;;;;41.83;22.70;;;8.00;57.70;;;;;;5052773;28;20028;-88
2022/12/29 01:46:16;;;;;;;42.05;22.45;;;8.10;57.00;;;;;;5053496;28;20020;-84
2022/12/29 01:48:43;;;;;;;40.43;22.93;;;8.10;57.20;;;;;;5053377;28;20071;-85
2022/12/29 01:51:09;;;;;;;38.65;21.63;;;7.80;57.30;;;;;;5054960;28;20017;-84
2022/12/29 01:53:36;;;;;;;38.03;21.90;;;7.30;57.70;;;;;;5053630;28;20025;-88
2022/12/29 01:56:07;;;;;;;39.30;23.20;;;6.90;59.10;;;;;;5054522;28;20459;-85
2022/12/29 01:58:37;;;;;;;41.67;22.98;;;6.50;60.20;;;;;;5053734;28;20052;-85
2022/12/29 02:01:03;;;;;;;41.28;23.52;;;6.50;60.80;;;;;;5052509;28;20013;-86
2022/12/29 02:03:32;;;;;;;46.35;23.27;;;6.70;60.80;;;;;;5052382;28;20040;-83
2022/12/29 02:06:23;;;;;;;42.83;23.35;;;7.10;59.70;;;;;;5052620;28;20043;-83
2022/12/29 02:08:53;;;;;;;44.58;24.05;;;7.50;58.30;;;;;;5053331;28;20021;-83
2022/12/29 02:11:19;;;;;;;34.08;18.40;;;7.40;58.80;;;;;;5052709;28;20111;-83
2022/12/29 02:13:45;;;;;;;40.65;22.30;;;7.00;59.40;;;;;;5052514;28;20103;-83
2022/12/29 02:16:19;;;;;;;44.15;22.73;;;6.90;59.60;;;;;;5052560;28;20031;-83
2022/12/29 02:19:25;;;;;;;42.42;23.83;;;6.90;60.40;;;;;;5053037;28;20033;-82
2022/12/29 02:21:50;;;;;;;43.00;23.77;;;7.00;60.60;;;;;;5054003;28;20049;-82
2022/12/29 02:24:34;;;;;;;45.50;23.25;;;7.20;60.20;;;;;;5053155;28;20102;-83
2022/12/29 02:27:22;;;;;;;43.15;23.50;;;7.60;59.40;;;;;;5052798;28;20017;-83
2022/12/29 02:30:12;;;;;;;40.05;22.42;;;7.90;58.60;;;;;;5054059;28;20029;-83
2022/12/29 02:32:58;;;;;;;40.78;22.42;;;8.00;58.40;;;;;;5052344;28;20014;-87
2022/12/29 02:35:35;;;;;;;43.33;24.00;;;7.90;57.90;;;;;;5052287;28;20095;-83
2022/12/29 02:38:04;;;;;;;43.60;22.90;;;7.80;58.50;;;;;;5051918;28;20058;-85
2022/12/29 02:40:35;;;;;;;43.60;22.80;;;8.00;57.80;;;;;;5052280;28;20036;-82
2022/12/29 02:43:24;;;;;;;40.28;23.50;;;8.10;57.70;;;;;;5053242;28;20079;-83
2022/12/29 02:46:12;;;;;;;40.00;21.73;;;8.20;57.20;;;;;;5051754;28;20032;-82
2022/12/29 02:48:43;;;;;;;37.55;22.80;;;8.30;56.70;;;;;;5052715;28;20174;-82
2022/12/29 02:51:18;;;;;;;38.45;22.25;;;8.00;57.10;;;;;;5052563;28;20021;-83
2022/12/29 02:56:31;;;;;;;41.75;22.90;;;8.00;57.30;;;;;;5053905;28;20085;-82
2022/12/29 02:58:57;;;;;;;42.65;22.40;;;7.80;57.70;;;;;;5052590;28;20146;-83
2022/12/29 03:01:34;;;;;;;39.45;21.63;;;7.80;57.40;;;;;;5053625;28;20028;-82
2022/12/29 03:04:00;;;;;;;39.40;21.88;;;7.60;58.00;;;;;;5055873;28;20037;-83
2022/12/29 03:06:31;;;;;;;36.53;20.65;;;7.60;58.40;;;;;;5055581;28;20028;-82
2022/12/29 03:09:16;;;;;;;37.70;21.17;;;7.60;57.70;;;;;;5055687;28;20333;-82
2022/12/29 03:12:07;;;;;;;42.78;22.73;;;7.20;59.20;;;;;;5055567;28;20040;-84
2022/12/29 03:17:55;;;;;;;39.13;21.97;;;7.10;59.80;;;;;;5056662;28;20040;-82
2022/12/29 03:20:38;;;;;;;39.28;22.00;;;7.30;59.80;;;;;;5056516;28;20037;-84
2022/12/29 03:23:06;;;;;;;37.10;21.33;;;7.20;59.70;;;;;;5055323;28;20037;-83
2022/12/29 03:25:37;;;;;;;40.90;22.15;;;7.20;60.20;;;;;;5055216;28;20400;-82
2022/12/29 03:28:26;;;;;;;42.08;23.08;;;7.20;60.10;;;;;;5056440;28;20134;-82
2022/12/29 03:30:52;;;;;;;42.38;22.38;;;7.40;60.60;;;;;;5055620;28;20037;-82
2022/12/29 03:33:23;;;;;;;41.60;21.23;;;7.70;59.40;;;;;;5055054;28;20464;-85
2022/12/29 03:35:52;;;;;;;37.72;20.95;;;8.00;58.50;;;;;;5056167;28;20383;-82
2022/12/29 03:38:35;;;;;;;37.80;20.88;;;8.10;58.00;;;;;;5054778;28;20029;-83
2022/12/29 03:41:08;;;;;;;40.30;21.95;;;8.10;57.70;;;;;;5055180;28;20027;-82
2022/12/29 03:43:33;;;;;;;36.40;21.42;;;8.00;58.70;;;;;;5056437;28;20056;-85
2022/12/29 03:45:59;;;;;;;38.67;20.65;;;8.00;58.50;;;;;;5055207;28;20024;-86
2022/12/29 03:48:25;;;;;;;38.83;21.85;;;8.10;58.10;;;;;;5055695;28;20035;-82
2022/12/29 03:50:51;;;;;;;37.50;21.02;;;8.00;58.10;;;;;;5055918;28;20017;-84
2022/12/29 03:53:16;;;;;;;41.78;22.10;;;8.00;58.50;;;;;;5055661;28;20037;-82
2022/12/29 03:55:42;;;;;;;41.22;21.30;;;8.00;58.00;;;;;;5056137;28;20020;-84
2022/12/29 03:58:08;;;;;;;39.90;21.67;;;8.00;58.20;;;;;;5056988;28;20025;-82
2022/12/29 04:00:33;;;;;;;42.60;22.05;;;8.10;58.10;;;;;;5055978;28;20490;-83
2022/12/29 04:02:59;;;;;;;41.28;22.02;;;8.10;58.00;;;;;;5054496;28;20037;-87
2022/12/29 04:05:25;;;;;;;42.88;21.90;;;8.00;57.80;;;;;;5054954;28;20021;-85
2022/12/29 04:07:50;;;;;;;41.05;22.08;;;7.80;58.40;;;;;;5054258;28;20025;-85
2022/12/29 04:10:16;;;;;;;40.50;21.45;;;7.80;58.60;;;;;;5053635;28;20414;-84
2022/12/29 04:12:42;;;;;;;40.42;21.83;;;7.70;58.80;;;;;;5054816;28;20029;-83
2022/12/29 04:15:08;;;;;;;38.55;20.95;;;7.80;58.80;;;;;;5052421;28;20017;-84
2022/12/29 04:17:34;;;;;;;40.35;21.63;;;7.80;58.70;;;;;;5052806;28;20025;-84
2022/12/29 04:22:43;;;;;;;47.90;24.42;;;7.40;59.30;;;;;;5054090;28;20133;-85
2022/12/29 04:25:09;;;;;;;40.42;22.48;;;6.90;60.80;;;;;;5053867;28;20075;-84
2022/12/29 04:27:35;;;;;;;40.22;22.52;;;6.70;61.90;;;;;;5052740;28;20036;-85
2022/12/29 04:30:01;;;;;;;41.65;22.60;;;6.70;62.00;;;;;;5054114;28;20028;-85
2022/12/29 04:32:27;;;;;;;37.78;22.58;;;6.80;62.10;;;;;;5055240;28;20029;-84
2022/12/29 04:34:52;;;;;;;41.15;22.80;;;6.90;61.40;;;;;;5053804;28;20025;-85
2022/12/29 04:37:18;;;;;;;39.83;22.05;;;7.00;61.30;;;;;;5054916;28;20067;-84
2022/12/29 04:39:44;;;;;;;42.42;23.05;;;7.30;60.70;;;;;;5055084;28;20052;-84
2022/12/29 04:42:09;;;;;;;42.53;22.83;;;7.50;60.00;;;;;;5053836;28;20044;-85
2022/12/29 04:44:35;;;;;;;38.90;21.50;;;7.80;59.80;;;;;;5053390;28;20021;-85
2022/12/29 04:47:01;;;;;;;48.97;23.92;;;7.90;59.30;;;;;;5053823;28;20053;-87
2022/12/29 04:49:26;;;;;;;42.50;21.60;;;8.00;58.80;;;;;;5054049;28;20392;-85
2022/12/29 04:51:52;;;;;;;41.30;21.77;;;8.10;58.90;;;;;;5054807;28;20066;-85
2022/12/29 04:54:18;;;;;;;39.38;22.17;;;8.00;58.50;;;;;;5053724;28;20021;-85
2022/12/29 04:56:43;;;;;;;43.67;21.50;;;8.10;58.70;;;;;;5054759;28;20025;-84
2022/12/29 04:59:09;;;;;;;39.75;21.98;;;8.30;58.40;;;;;;5053275;28;20476;-88
2022/12/29 05:01:35;;;;;;;43.75;22.50;;;8.30;57.80;;;;;;5054678;28;20044;-85
2022/12/29 05:05:36;;;;;;;41.42;21.75;;;8.20;57.30;;;;;;5092222;28;20768;-84
2022/12/29 05:08:02;;;;;;;45.83;23.85;;;8.20;58.10;;;;;;5092102;28;20025;-85
2022/12/29 05:10:27;;;;;;;44.53;22.75;;;8.20;57.90;;;;;;5091925;28;20104;-83
2022/12/29 05:12:53;;;;;;;45.30;23.40;;;8.10;58.00;;;;;;5090515;28;20038;-83
2022/12/29 05:15:19;;;;;;;42.45;23.02;;;8.00;58.10;;;;;;5090635;28;20078;-84
2022/12/29 05:17:44;;;;;;;41.85;22.80;;;7.90;58.20;;;;;;5089763;28;20455;-85
2022/12/29 05:20:10;;;;;;;44.72;23.90;;;7.90;58.20;;;;;;5091078;28;20482;-84
2022/12/29 05:22:36;;;;;;;48.35;24.48;;;7.80;58.50;;;;;;5089835;28;20028;-84
2022/12/29 05:25:02;;;;;;;50.83;24.85;;;7.60;59.40;;;;;;5089761;28;20060;-84
2022/12/29 05:27:28;;;;;;;41.45;23.50;;;7.40;59.40;;;;;;5090064;28;20016;-85
2022/12/29 05:29:54;;;;;;;44.92;23.60;;;7.50;59.10;;;;;;5089786;28;20078;-85
2022/12/29 05:32:20;;;;;;;48.20;24.95;;;7.60;59.00;;;;;;5091363;28;20016;-83
2022/12/29 05:34:45;;;;;;;47.45;24.40;;;7.60;59.00;;;;;;5091189;28;20024;-85
2022/12/29 05:37:11;;;;;;;50.25;24.17;;;7.50;59.60;;;;;;5090524;28;20020;-84
2022/12/29 05:39:36;;;;;;;54.03;26.52;;;7.50;59.60;;;;;;5090106;28;20028;-85
2022/12/29 05:42:02;;;;;;;54.30;25.40;;;7.70;59.30;;;;;;5090247;28;20031;-85
2022/12/29 05:44:28;;;;;;;49.83;26.13;;;7.90;58.90;;;;;;5091005;28;20066;-86
2022/12/29 05:46:57;;;;;;;55.50;26.00;;;8.00;58.20;;;;;;5091207;28;20020;-83
2022/12/29 05:49:22;;;;;;;52.20;25.63;;;8.00;58.30;;;;;;5089445;28;20024;-85
2022/12/29 05:51:48;;;;;;;51.47;25.30;;;7.90;58.40;;;;;;5089228;28;20032;-85
2022/12/29 05:54:14;;;;;;;45.63;24.02;;;8.00;58.20;;;;;;5089325;28;20483;-85
2022/12/29 05:56:39;;;;;;;54.72;26.60;;;8.20;57.70;;;;;;5090276;28;20032;-85
2022/12/29 05:59:05;;;;;;;51.58;25.65;;;8.00;58.10;;;;;;5089147;28;20483;-85
2022/12/29 06:01:31;;;;;;;50.95;25.33;;;7.90;58.70;;;;;;5089204;28;20217;-85
2022/12/29 06:03:56;;;;;;;45.47;24.08;;;8.00;58.60;;;;;;5089651;28;20040;-85
2022/12/29 06:06:22;;;;;;;56.55;27.20;;;8.10;58.20;;;;;;5091231;28;20096;-85
2022/12/29 06:08:47;;;;;;;51.08;25.73;;;8.30;57.90;;;;;;5089619;28;20427;-85
2022/12/29 06:11:13;;;;;;;52.50;26.13;;;8.30;57.40;;;;;;5090184;28;20025;-85
2022/12/29 06:13:39;;;;;;;55.83;27.00;;;8.20;57.60;;;;;;5089621;28;20028;-86
2022/12/29 06:16:05;;;;;;;58.22;25.85;;;8.00;58.00;;;;;;5081305;28;20047;-85
2022/12/29 06:18:31;;;;;;;52.22;25.45;;;7.80;58.70;;;;;;5075656;28;20086;-84
2022/12/29 06:21:04;;;;;;;57.17;27.20;;;7.70;58.70;;;;;;5075324;28;20036;-85
2022/12/29 06:23:29;;;;;;;54.63;27.90;;;7.60;59.00;;;;;;5075206;28;20039;-84
2022/12/29 06:25:56;;;;;;;52.65;26.88;;;7.70;58.70;;;;;;5075726;28;20020;-85
2022/12/29 06:28:21;;;;;;;61.13;28.35;;;7.80;58.60;;;;;;5075089;28;20078;-84
2022/12/29 06:30:48;;;;;;;55.92;27.30;;;8.00;58.40;;;;;;5075180;28;20111;-85
2022/12/29 06:33:15;;;;;;;56.80;28.45;;;8.20;57.40;;;;;;5075758;28;20109;-85
2022/12/29 06:35:42;;;;;;;56.45;28.02;;;8.10;57.70;;;;;;5075845;28;20087;-85
2022/12/29 06:38:08;;;;;;;54.65;28.75;;;8.20;57.60;;;;;;5075529;28;20016;-84
2022/12/29 06:40:33;;;;;;;53.80;28.40;;;8.20;58.00;;;;;;5076097;28;20368;-85
2022/12/29 06:42:59;;;;;;;58.40;28.25;;;8.30;57.50;;;;;;5075876;28;20032;-84
2022/12/29 06:45:25;;;;;;;54.15;27.10;;;8.40;56.90;;;;;;5075847;28;20032;-85
2022/12/29 06:47:50;;;;;;;56.88;26.38;;;8.20;57.10;;;;;;5075411;28;20052;-85
2022/12/29 06:50:16;;;;;;;56.78;29.65;;;8.10;57.90;;;;;;5074803;28;20040;-85
2022/12/29 06:52:42;;;;;;;65.68;31.25;;;8.10;58.20;;;;;;5074676;28;20449;-84
2022/12/29 06:55:08;;;;;;;62.10;29.45;;;8.20;57.60;;;;;;5063825;28;20021;-84
2022/12/29 06:57:33;;;;;;;56.40;28.60;;;8.10;57.70;;;;;;5055905;28;20115;-83
2022/12/29 06:59:59;;;;;;;61.13;29.40;;;7.90;58.10;;;;;;5074781;28;20115;-85
2022/12/29 07:02:25;;;;;;;57.65;28.40;;;7.90;58.50;;;;;;5089214;28;20028;-83
2022/12/29 07:04:52;;;;;;;57.28;27.85;;;7.90;58.40;;;;;;5095462;28;20045;-84
2022/12/29 07:07:19;;;;;;;49.92;26.98;;;7.90;58.40;;;;;;5095567;28;20512;-84
2022/12/29 07:09:45;;;;;;;56.95;30.60;;;8.00;58.50;;;;;;5095943;28;20024;-85
2022/12/29 07:12:11;;;;;;;53.90;26.73;;;8.20;58.30;;;;;;5090060;28;20032;-83
2022/12/29 07:14:37;;;;;;;50.42;27.52;;;8.40;57.80;;;;;;5074883;28;20029;-86
2022/12/29 07:17:05;;;;;;;56.05;26.80;;;8.20;57.70;;;;;;5072755;28;20019;-84
2022/12/29 07:19:31;;;;;;;47.15;25.17;;;7.90;59.60;;;;;;5069677;28;20110;-84
2022/12/29 07:22:01;;;;;;;51.35;25.67;;;8.00;58.80;;;;;;5066622;28;20021;-86
2022/12/29 07:24:26;;;;;;;52.63;27.13;;;8.10;59.00;;;;;;5074363;28;20058;-85
2022/12/29 07:26:52;;;;;;;52.28;26.88;;;8.10;58.90;;;;;;5069186;28;20017;-84
2022/12/29 07:29:18;;;;;;;50.05;26.73;;;8.30;58.90;;;;;;5085950;28;20024;-84
2022/12/29 07:31:44;;;;;;;52.70;26.15;;;8.70;57.80;;;;;;5092348;28;20387;-84
2022/12/29 07:34:09;;;;;;;52.53;26.08;;;8.90;57.30;;;;;;5074436;28;20459;-84
2022/12/29 07:36:41;;;;;;;56.42;28.30;;;8.90;57.60;;;;;;5073862;28;20028;-84
2022/12/29 07:39:07;;;;;;;51.42;27.42;;;9.10;56.70;;;;;;5068919;28;20108;-83
2022/12/29 07:41:33;;;;;;;53.08;28.02;;;9.30;56.60;;;;;;5060246;28;20146;-85
2022/12/29 07:43:58;;;;;;;61.33;33.25;;;9.40;56.70;;;;;;5054016;28;20041;-83
2022/12/29 07:46:24;;;;;;;65.90;35.72;;;9.40;56.80;;;;;;5053831;28;20055;-84
2022/12/29 07:48:49;;;;;;;75.82;39.92;;;9.40;56.50;;;;;;5060201;28;20031;-84
2022/12/29 07:51:15;;;;;;;77.20;39.28;;;9.30;56.10;;;;;;5094266;28;20032;-85
2022/12/29 07:53:41;;;;;;;57.20;30.77;;;9.20;56.80;;;;;;5094093;28;20039;-86
2022/12/29 07:56:06;;;;;;;56.95;29.60;;;9.40;56.20;;;;;;5094055;28;20063;-85
2022/12/29 07:58:32;;;;;;;60.60;30.92;;;9.40;56.40;;;;;;5094093;28;20137;-85
2022/12/29 08:00:58;;;;;;;53.72;29.80;;;9.30;56.60;;;;;;5086460;28;20051;-85
2022/12/29 08:03:25;;;;;;;51.65;27.55;;;9.30;56.60;;;;;;5072226;28;20395;-86
2022/12/29 08:05:52;;;;;;;52.17;29.13;;;9.50;56.80;;;;;;5071402;28;20094;-86
2022/12/29 08:08:26;;;;;;;52.00;27.65;;;9.60;56.20;;;;;;5082803;28;20031;-86
2022/12/29 08:10:52;;;;;;;48.42;28.55;;;9.90;56.30;;;;;;5093594;28;20028;-85
2022/12/29 08:13:18;;;;;;;49.92;27.00;;;10.00;55.90;;;;;;5089118;28;20056;-86
2022/12/29 08:15:43;;;;;;;49.30;27.88;;;10.20;55.80;;;;;;5060188;28;20078;-85
2022/12/29 08:18:15;;;;;;;50.05;27.13;;;10.30;55.40;;;;;;5062142;28;20025;-87
2022/12/29 08:20:41;;;;;;;49.25;27.02;;;10.50;55.40;;;;;;5060406;28;20498;-86
2022/12/29 08:23:06;;;;;;;47.55;25.83;;;10.40;55.50;;;;;;5054943;28;20059;-87
2022/12/29 08:25:32;;;;;;;43.13;25.45;;;10.30;55.70;;;;;;5053304;28;20041;-86
2022/12/29 08:27:58;;;;;;;45.90;26.27;;;10.50;55.90;;;;;;5066362;28;20048;-87
2022/12/29 08:30:23;;;;;;;41.95;25.40;;;10.80;55.40;;;;;;5073437;28;20395;-85
2022/12/29 08:32:49;;;;;;;43.45;25.85;;;10.90;55.00;;;;;;5073259;28;20059;-86
2022/12/29 08:35:15;;;;;;;42.22;23.95;;;11.00;54.70;;;;;;5072919;28;20025;-87
2022/12/29 08:37:40;;;;;;;45.22;24.33;;;11.00;54.40;;;;;;5073335;28;20032;-87
2022/12/29 08:40:07;;;;;;;44.78;24.20;;;11.00;54.30;;;;;;5056445;28;20033;-88
2022/12/29 08:42:33;;;;;;;49.88;25.17;;;11.10;54.60;;;;;;5054132;28;20025;-88
2022/12/29 08:44:59;;;;;;;50.67;25.05;;;11.30;53.30;;;;;;5075641;28;20032;-88
2022/12/29 08:47:27;;;;;;;66.65;52.58;;;11.30;53.80;;;;;;5093099;28;20462;-89
2022/12/29 08:49:52;;;;;;;46.63;25.27;;;11.00;54.20;;;;;;5092201;28;20424;-89
2022/12/29 08:52:18;;;;;;;45.10;25.15;;;11.30;54.10;;;;;;5072396;28;20028;-89
2022/12/29 08:54:44;;;;;;;43.67;24.25;;;12.10;53.20;;;;;;5074639;28;20110;-91
2022/12/29 08:57:10;;;;;;;46.17;24.08;;;12.80;51.20;;;;;;5076898;28;20375;-85
2022/12/29 08:59:35;;;;;;;43.85;26.20;;;13.70;50.90;;;;;;5062547;28;20052;-92
2022/12/29 09:04:44;;;;;;;;;;;15.30;47.10;;;;;;5017338;22;20066;-93
2022/12/29 09:07:10;;;;;;;37.83;23.75;;;14.90;48.00;;;;;;4996755;28;20012;-91
2022/12/29 09:09:37;;;;;;;36.55;22.50;;;14.90;48.20;;;;;;4994734;28;20125;-92
2022/12/29 09:12:03;;;;;;;42.45;24.27;;;14.90;47.30;;;;;;4995489;28;20023;-93
2022/12/29 09:14:35;;;;;;;47.17;25.00;;;15.00;47.90;;;;;;4997480;28;20477;-92
2022/12/29 09:19:44;;;;;;;46.30;27.33;;;15.60;46.90;;;;;;5015707;28;20088;-92
2022/12/29 09:22:10;;;;;;;54.67;31.08;;;16.10;46.80;;;;;;5014305;28;20030;-92
2022/12/29 09:24:36;;;;;;;58.67;31.95;;;16.90;46.10;;;;;;5004352;28;20045;-87
2022/12/29 09:27:01;;;;;;;55.85;30.85;;;17.60;44.80;;;;;;5002057;28;20030;-88
2022/12/29 09:29:27;;;;;;;45.53;26.42;;;17.90;44.40;;;;;;4996672;28;20100;-86
2022/12/29 09:31:53;;;;;;;47.95;28.25;;;17.70;44.10;;;;;;5001712;28;20048;-91
2022/12/29 09:34:19;;;;;;;40.58;23.83;;;17.70;44.60;;;;;;5004988;28;20445;-89
2022/12/29 09:36:44;;;;;;;61.80;34.17;;;17.60;44.70;;;;;;5014094;28;20034;-92
2022/12/29 09:39:10;;;;;;;49.17;28.92;;;17.80;44.50;;;;;;5003343;28;20022;-91
2022/12/29 09:41:42;;;;;;;38.20;23.52;;;18.30;43.90;;;;;;5004705;28;20194;-91
2022/12/29 09:44:21;;;;;;;39.45;24.27;;;18.50;43.10;;;;;;4994553;28;20464;-92
2022/12/29 09:46:52;;;;;;;49.22;25.95;;;18.40;44.00;;;;;;4317635;28;9999762;-89
2022/12/29 09:49:28;;;;;;;43.55;25.40;;;18.50;43.30;;;;;;5011938;28;20124;-92
2022/12/29 09:51:59;;;;;;;41.42;24.02;;;18.30;43.60;;;;;;5008645;28;20072;-93
2022/12/29 09:54:43;;;;;;;40.63;25.60;;;18.10;43.50;;;;;;4996576;28;20039;-94
2022/12/29 09:57:27;;;;;;;38.72;24.45;;;17.30;44.90;;;;;;4997183;28;20038;-93
2022/12/29 10:00:00;;;;;;;31.90;22.25;;;17.70;44.90;;;;;;4997279;28;20033;-95
2022/12/29 10:02:42;;;;;;;33.50;21.73;;;18.00;43.80;;;;;;4996308;28;20022;-89
2022/12/29 10:05:36;;;;;;;31.85;21.85;;;17.20;44.20;;;;;;5022485;28;20150;-90
2022/12/29 10:08:20;;;;;;;36.70;22.67;;;14.10;47.50;;;;;;5044354;28;20096;-95
2022/12/29 10:10:51;;;;;;;37.55;22.58;;;13.50;50.30;;;;;;5044855;28;20033;-95
2022/12/29 10:13:50;;;;;;;34.75;21.83;;;14.50;48.70;;;;;;5040897;28;20033;-94
2022/12/29 10:16:26;;;;;;;31.48;20.98;;;15.90;47.50;;;;;;5042934;28;20059;-91
2022/12/29 10:19:09;;;;;;;38.50;22.75;;;16.80;45.90;;;;;;5052865;23;20951;-89
2022/12/29 10:21:57;;;;;;;38.72;24.23;;;17.70;45.30;;;;;;5110345;28;20015;-89
2022/12/29 10:24:29;;;;;;;33.75;21.90;;;18.60;43.90;;;;;;5121646;22;20043;-95
2022/12/29 10:26:57;;;;;;;44.85;22.70;;;18.40;43.60;;;;;;5103039;22;20442;-92
2022/12/29 10:32:36;;;;;;;35.45;22.75;;;16.50;45.90;;;;;;5064435;22;20072;-92
2022/12/29 10:35:26;;;;;;;32.78;21.92;;;16.40;45.80;;;;;;5057182;28;20368;-84
2022/12/29 10:38:33;;;;;;;35.63;20.70;;;15.90;46.90;;;;;;5039172;28;20036;-84
2022/12/29 10:41:11;;;;;;;32.65;20.48;;;15.80;47.00;;;;;;5038642;28;20061;-87
2022/12/29 10:43:54;;;;;;;29.15;19.15;;;14.60;48.30;;;;;;5038490;28;20016;-85
2022/12/29 10:48:46;;;;;;;34.05;21.63;;;14.00;49.50;;;;;;5095529;23;20050;-89
2022/12/29 10:58:06;;;;;;;33.97;21.45;;;13.40;50.40;;;;;;5110804;28;20050;-86
2022/12/29 11:00:38;;;;;;;35.65;21.08;;;13.50;50.40;;;;;;5081180;28;20135;-86
2022/12/29 11:03:59;;;;;;;38.85;22.55;;;14.00;49.70;;;;;;5085155;28;20099;-89
2022/12/29 11:06:27;;;;;;;34.50;20.95;;;13.70;50.00;;;;;;5080156;28;20067;-84
2022/12/29 11:09:19;;;;;;;34.78;21.40;;;13.30;50.30;;;;;;5091687;28;20069;-85
2022/12/29 11:11:53;;;;;;;41.35;22.55;;;12.90;51.30;;;;;;4976528;28;20056;-87
2022/12/29 11:14:42;;;;;;;36.83;22.02;;;12.30;52.50;;;;;;5013527;28;20032;-84
2022/12/29 11:17:15;;;;;;;33.55;22.25;;;12.40;52.50;;;;;;4991756;28;20027;-91
2022/12/29 11:19:41;;;;;;;40.40;22.83;;;13.10;51.90;;;;;;4844180;22;10002485;-87
2022/12/29 11:22:26;;;;;;;36.10;21.67;;;13.80;50.90;;;;;;5058081;28;20024;-85
2022/12/29 11:24:53;;;;;;;38.22;23.42;;;14.00;49.90;;;;;;5057856;28;20028;-84
2022/12/29 11:27:25;;;;;;;37.95;22.67;;;13.80;50.20;;;;;;5056969;28;20036;-87
2022/12/29 11:29:53;;;;;;;33.55;21.13;;;13.80;50.20;;;;;;5056717;28;20107;-95
2022/12/29 11:32:22;;;;;;;38.17;22.20;;;13.60;50.50;;;;;;5077499;28;20023;-88
2022/12/29 11:34:51;;;;;;;34.90;22.27;;;13.30;50.90;;;;;;5053267;28;20293;-93
2022/12/29 11:37:39;;;;;;;36.72;21.88;;;12.90;51.30;;;;;;5070086;28;20366;-90
2022/12/29 11:40:15;;;;;;;44.22;21.05;;;12.70;52.50;;;;;;5059027;28;20028;-90
2022/12/29 11:42:50;;;;;;;41.90;23.17;;;12.30;52.50;;;;;;5069644;28;20044;-87
2022/12/29 11:48:46;;;;;;;35.45;23.05;;;10.60;56.00;;;;;;4730958;22;10001425;-93
2022/12/29 11:54:45;;;;;;;40.08;23.30;;;10.70;56.30;;;;;;5013762;28;20417;-89
2022/12/29 11:59:57;;;;;;;41.10;25.13;;;11.00;55.80;;;;;;5042742;22;20417;-89
2022/12/29 12:05:43;;;;;;;49.47;34.83;;;10.40;56.90;;;;;;5106490;22;20084;-86
2022/12/29 12:08:34;;;;;;;36.67;22.85;;;10.50;57.20;;;;;;5024681;28;20113;-87
2022/12/29 12:14:32;;;;;;;37.65;24.48;;;10.40;56.90;;;;;;5056186;28;20108;-95
2022/12/29 12:17:10;;;;;;;;;;;10.10;58.00;;;;;;5050613;28;20149;-93
2022/12/29 12:19:48;;;;;;;41.35;23.60;;;10.20;57.50;;;;;;5045813;28;19912;-94
2022/12/29 12:23:02;;;;;;;38.47;23.73;;;9.80;58.40;;;;;;5035795;28;20043;-87
2022/12/29 12:25:37;;;;;;;117.68;54.85;;;10.10;58.50;;;;;;4945685;29;20039;-94
2022/12/29 12:28:29;;;;;;;36.33;22.70;;;10.00;57.80;;;;;;4954154;29;20073;-87
2022/12/29 12:30:59;;;;;;;35.92;21.20;;;10.40;57.40;;;;;;4955089;29;20045;-88
2022/12/29 12:33:35;;;;;;;39.67;24.30;;;10.10;57.60;;;;;;4954302;29;20078;-89
2022/12/29 12:36:33;;;;;;;73.82;61.83;;;10.00;57.80;;;;;;4970802;28;20053;-86
2022/12/29 12:39:24;;;;;;;40.10;23.85;;;10.30;57.90;;;;;;4955972;28;20027;-90
2022/12/29 12:42:14;;;;;;;36.55;23.65;;;10.30;57.40;;;;;;4956150;28;20374;-93
2022/12/29 12:44:51;;;;;;;40.33;24.48;;;10.10;57.70;;;;;;4956207;28;20043;-87
2022/12/29 12:47:55;;;;;;;44.13;27.40;;;10.00;57.90;;;;;;4956157;28;20027;-91
2022/12/29 12:51:08;;;;;;;45.92;28.90;;;10.60;57.30;;;;;;4972356;28;20058;-89
2022/12/29 12:54:15;;;;;;;42.40;28.10;;;10.80;56.60;;;;;;4972412;28;20034;-93
2022/12/29 12:56:52;;;;;;;36.00;22.98;;;11.10;55.90;;;;;;4966666;28;20653;-90
2022/12/29 12:59:50;;;;;;;35.63;22.02;;;10.80;56.10;;;;;;5002456;28;20124;-92
2022/12/29 13:02:37;;;;;;;33.53;20.77;;;10.90;55.90;;;;;;5028292;28;20066;-89
2022/12/29 13:05:14;;;;;;;35.70;22.95;;;10.30;57.00;;;;;;5032627;28;20056;-91
2022/12/29 13:08:07;;;;;;;34.70;22.92;;;9.80;58.30;;;;;;5033697;28;20104;-92
2022/12/29 13:10:43;;;;;;;39.00;22.80;;;9.70;59.00;;;;;;5033192;28;20407;-89
2022/12/29 13:13:40;;;;;;;37.63;23.13;;;9.20;59.70;;;;;;5033513;28;20029;-88
2022/12/29 13:16:12;;;;;;;37.92;21.73;;;9.00;60.30;;;;;;4721594;28;10000801;-88
2022/12/29 13:19:04;;;;;;;40.78;23.40;;;8.90;60.80;;;;;;5036547;28;20345;-89
2022/12/29 13:21:42;;;;;;;40.25;24.92;;;9.00;60.90;;;;;;5052171;28;20063;-90
2022/12/29 13:24:27;;;;;;;43.50;26.02;;;9.30;60.20;;;;;;5035581;28;20036;-89
2022/12/29 13:27:24;;;;;;;41.40;24.73;;;9.90;59.50;;;;;;5038573;28;20027;-94
2022/12/29 13:29:52;;;;;;;37.00;21.45;;;9.90;58.50;;;;;;5038311;28;20021;-92
2022/12/29 13:32:30;;;;;;;39.10;23.70;;;9.10;60.00;;;;;;5037986;28;20041;-92
2022/12/29 13:35:36;;;;;;;44.65;25.30;;;9.10;60.60;;;;;;5038619;28;20025;-90
2022/12/29 13:38:15;;;;;;;39.75;23.63;;;9.90;59.40;;;;;;5038773;28;20029;-90
2022/12/29 13:40:48;;;;;;;37.92;23.75;;;10.60;57.30;;;;;;5032321;28;20480;-90
2022/12/29 13:43:15;;;;;;;49.00;34.28;;;10.70;57.30;;;;;;5040037;28;20029;-91
2022/12/29 13:45:44;;;;;;;49.67;28.50;;;10.90;56.70;;;;;;5039823;28;20068;-93
2022/12/29 13:48:50;;;;;;;38.72;23.33;;;11.00;56.30;;;;;;5041100;28;20021;-91
2022/12/29 13:51:17;;;;;;;43.47;28.15;;;10.70;56.30;;;;;;5039198;28;20021;-92
2022/12/29 13:53:56;;;;;;;48.42;29.15;;;9.50;58.90;;;;;;5039356;28;20025;-92
2022/12/29 13:56:36;;;;;;;45.33;27.75;;;9.30;60.20;;;;;;5055923;28;20016;-92
2022/12/29 13:59:21;;;;;;;44.80;26.70;;;9.60;59.40;;;;;;5039659;28;20028;-91
2022/12/29 14:02:15;;;;;;;40.13;23.75;;;9.70;58.90;;;;;;5036075;28;20025;-92
2022/12/29 14:04:57;;;;;;;49.22;27.73;;;9.80;59.10;;;;;;5037255;28;20047;-91
2022/12/29 14:07:23;;;;;;;50.97;27.38;;;10.40;58.00;;;;;;5039493;28;20021;-92
2022/12/29 14:09:55;;;;;;;44.17;26.48;;;10.70;57.20;;;;;;5039436;28;20435;-92